sensor_id;sensor_type;location;lat;lon;timestamp;temperature;humidity
28608;DHT22;15802;45.654;13.804;2022-11-06T00:00:38;13.00;99.90
28608;DHT22;15802;45.654;13.804;2022-11-06T00:03:04;13.00;99.90
28608;DHT22;15802;45.654;13.804;2022-11-06T00:05:30;13.00;99.90
28608;DHT22;15802;45.654;13.804;2022-11-06T00:08:15;12.90;99.90
28608;DHT22;15802;45.654;13.804;2022-11-06T00:10:41;12.80;99.90
28608;DHT22;15802;45.654;13.804;2022-11-06T00:13:06;12.70;99.90
28608;DHT22;15802;45.654;13.804;2022-11-06T00:15:32;12.60;99.90
28608;DHT22;15802;45.654;13.804;2022-11-06T00:17:58;12.70;99.90
28608;DHT22;15802;45.654;13.804;2022-11-06T00:20:23;12.70;99.90
28608;DHT22;15802;45.654;13.804;2022-11-06T00:22:49;12.70;99.90
28608;DHT22;15802;45.654;13.804;2022-11-06T00:25:15;12.80;99.90
28608;DHT22;15802;45.654;13.804;2022-11-06T00:27:41;12.70;99.90
28608;DHT22;15802;45.654;13.804;2022-11-06T00:30:08;12.70;99.90
28608;DHT22;15802;45.654;13.804;2022-11-06T00:32:36;12.70;99.90
28608;DHT22;15802;45.654;13.804;2022-11-06T00:35:02;12.70;99.90
28608;DHT22;15802;45.654;13.804;2022-11-06T00:37:28;12.70;99.90
28608;DHT22;15802;45.654;13.804;2022-11-06T00:39:54;12.70;99.90
28608;DHT22;15802;45.654;13.804;2022-11-06T00:42:19;12.70;99.90
28608;DHT22;15802;45.654;13.804;2022-11-06T00:44:45;12.80;99.90
28608;DHT22;15802;45.654;13.804;2022-11-06T00:47:11;12.70;99.90
28608;DHT22;15802;45.654;13.804;2022-11-06T00:49:36;12.80;99.90
28608;DHT22;15802;45.654;13.804;2022-11-06T00:52:03;12.70;99.90
28608;DHT22;15802;45.654;13.804;2022-11-06T00:54:29;12.70;99.90
28608;DHT22;15802;45.654;13.804;2022-11-06T00:56:55;12.70;99.90
28608;DHT22;15802;45.654;13.804;2022-11-06T00:59:20;12.70;99.90
28608;DHT22;15802;45.654;13.804;2022-11-06T01:01:46;12.70;99.90
28608;DHT22;15802;45.654;13.804;2022-11-06T01:04:13;12.70;99.90
28608;DHT22;15802;45.654;13.804;2022-11-06T01:06:43;12.70;99.90
28608;DHT22;15802;45.654;13.804;2022-11-06T01:09:10;12.70;99.90
28608;DHT22;15802;45.654;13.804;2022-11-06T01:11:38;12.70;99.90
28608;DHT22;15802;45.654;13.804;2022-11-06T01:14:04;12.80;99.90
28608;DHT22;15802;45.654;13.804;2022-11-06T01:16:31;12.80;99.90
28608;DHT22;15802;45.654;13.804;2022-11-06T01:18:57;12.80;99.90
28608;DHT22;15802;45.654;13.804;2022-11-06T01:21:25;12.80;99.90
28608;DHT22;15802;45.654;13.804;2022-11-06T01:23:52;12.80;99.90
28608;DHT22;15802;45.654;13.804;2022-11-06T01:26:19;12.80;99.90
28608;DHT22;15802;45.654;13.804;2022-11-06T01:28:44;12.80;99.90
28608;DHT22;15802;45.654;13.804;2022-11-06T01:31:11;12.70;99.90
28608;DHT22;15802;45.654;13.804;2022-11-06T01:33:38;12.70;99.90
28608;DHT22;15802;45.654;13.804;2022-11-06T01:36:03;12.60;99.90
28608;DHT22;15802;45.654;13.804;2022-11-06T01:38:29;12.60;99.90
28608;DHT22;15802;45.654;13.804;2022-11-06T01:40:55;12.60;99.90
28608;DHT22;15802;45.654;13.804;2022-11-06T01:43:23;12.60;99.90
28608;DHT22;15802;45.654;13.804;2022-11-06T01:45:50;12.50;99.90
28608;DHT22;15802;45.654;13.804;2022-11-06T01:48:17;12.30;99.90
28608;DHT22;15802;45.654;13.804;2022-11-06T01:50:45;12.30;99.90
28608;DHT22;15802;45.654;13.804;2022-11-06T01:53:12;12.20;99.90
28608;DHT22;15802;45.654;13.804;2022-11-06T01:55:39;12.20;99.90
28608;DHT22;15802;45.654;13.804;2022-11-06T01:58:06;12.10;99.90
28608;DHT22;15802;45.654;13.804;2022-11-06T02:00:33;12.20;99.90
28608;DHT22;15802;45.654;13.804;2022-11-06T02:02:59;12.10;99.90
28608;DHT22;15802;45.654;13.804;2022-11-06T02:05:25;12.00;99.90
28608;DHT22;15802;45.654;13.804;2022-11-06T02:07:51;11.90;99.90
28608;DHT22;15802;45.654;13.804;2022-11-06T02:10:17;11.80;99.90
28608;DHT22;15802;45.654;13.804;2022-11-06T02:12:44;11.60;99.90
28608;DHT22;15802;45.654;13.804;2022-11-06T02:15:16;11.60;99.90
28608;DHT22;15802;45.654;13.804;2022-11-06T02:20:32;11.30;99.90
28608;DHT22;15802;45.654;13.804;2022-11-06T02:28:31;11.00;99.90
28608;DHT22;15802;45.654;13.804;2022-11-06T02:30:59;10.90;99.90
28608;DHT22;15802;45.654;13.804;2022-11-06T02:33:28;10.80;99.90
28608;DHT22;15802;45.654;13.804;2022-11-06T02:35:59;10.70;99.90
28608;DHT22;15802;45.654;13.804;2022-11-06T02:38:27;10.60;99.90
28608;DHT22;15802;45.654;13.804;2022-11-06T02:40:57;10.50;99.90
28608;DHT22;15802;45.654;13.804;2022-11-06T02:43:25;10.50;99.90
28608;DHT22;15802;45.654;13.804;2022-11-06T02:45:55;10.40;99.90
28608;DHT22;15802;45.654;13.804;2022-11-06T02:48:25;10.30;99.90
28608;DHT22;15802;45.654;13.804;2022-11-06T02:50:52;10.20;99.90
28608;DHT22;15802;45.654;13.804;2022-11-06T02:53:19;10.10;99.90
28608;DHT22;15802;45.654;13.804;2022-11-06T02:55:47;10.10;99.90
28608;DHT22;15802;45.654;13.804;2022-11-06T02:58:19;10.20;99.90
28608;DHT22;15802;45.654;13.804;2022-11-06T03:00:47;10.20;99.90
28608;DHT22;15802;45.654;13.804;2022-11-06T03:03:20;10.20;99.90
28608;DHT22;15802;45.654;13.804;2022-11-06T03:05:49;10.20;99.90
28608;DHT22;15802;45.654;13.804;2022-11-06T03:08:25;10.20;99.90
28608;DHT22;15802;45.654;13.804;2022-11-06T03:10:57;10.30;99.90
28608;DHT22;15802;45.654;13.804;2022-11-06T03:13:31;10.30;99.90
28608;DHT22;15802;45.654;13.804;2022-11-06T03:16:04;10.20;99.90
28608;DHT22;15802;45.654;13.804;2022-11-06T03:18:33;10.10;99.90
28608;DHT22;15802;45.654;13.804;2022-11-06T03:21:02;9.90;99.90
28608;DHT22;15802;45.654;13.804;2022-11-06T03:23:32;9.80;99.90
28608;DHT22;15802;45.654;13.804;2022-11-06T03:26:03;9.80;99.90
28608;DHT22;15802;45.654;13.804;2022-11-06T03:28:34;9.80;99.90
28608;DHT22;15802;45.654;13.804;2022-11-06T03:31:04;9.80;99.90
28608;DHT22;15802;45.654;13.804;2022-11-06T03:33:32;9.80;99.90
28608;DHT22;15802;45.654;13.804;2022-11-06T03:36:01;9.80;99.90
28608;DHT22;15802;45.654;13.804;2022-11-06T03:38:29;9.80;99.90
28608;DHT22;15802;45.654;13.804;2022-11-06T03:40:58;9.80;99.90
28608;DHT22;15802;45.654;13.804;2022-11-06T03:43:25;9.80;99.90
28608;DHT22;15802;45.654;13.804;2022-11-06T03:45:52;9.70;99.90
28608;DHT22;15802;45.654;13.804;2022-11-06T03:48:22;9.70;99.90
28608;DHT22;15802;45.654;13.804;2022-11-06T03:50:53;9.60;99.90
28608;DHT22;15802;45.654;13.804;2022-11-06T03:53:22;9.50;99.90
28608;DHT22;15802;45.654;13.804;2022-11-06T03:55:51;9.50;99.90
28608;DHT22;15802;45.654;13.804;2022-11-06T03:58:23;9.50;99.90
28608;DHT22;15802;45.654;13.804;2022-11-06T04:00:50;9.50;99.90
28608;DHT22;15802;45.654;13.804;2022-11-06T04:03:19;9.50;99.90
28608;DHT22;15802;45.654;13.804;2022-11-06T04:05:50;9.50;99.90
28608;DHT22;15802;45.654;13.804;2022-11-06T04:08:16;9.60;99.90
28608;DHT22;15802;45.654;13.804;2022-11-06T04:11:02;9.50;99.90
28608;DHT22;15802;45.654;13.804;2022-11-06T04:13:48;9.50;99.90
28608;DHT22;15802;45.654;13.804;2022-11-06T04:16:23;9.60;99.90
28608;DHT22;15802;45.654;13.804;2022-11-06T04:18:50;9.60;99.90
28608;DHT22;15802;45.654;13.804;2022-11-06T04:21:24;9.60;99.90
28608;DHT22;15802;45.654;13.804;2022-11-06T04:23:58;9.70;99.90
28608;DHT22;15802;45.654;13.804;2022-11-06T04:26:56;9.80;99.90
28608;DHT22;15802;45.654;13.804;2022-11-06T04:29:29;9.90;99.90
28608;DHT22;15802;45.654;13.804;2022-11-06T04:32:16;10.10;99.90
28608;DHT22;15802;45.654;13.804;2022-11-06T04:34:46;10.10;99.90
28608;DHT22;15802;45.654;13.804;2022-11-06T04:37:20;10.10;99.90
28608;DHT22;15802;45.654;13.804;2022-11-06T04:39:58;10.00;99.90
28608;DHT22;15802;45.654;13.804;2022-11-06T04:42:27;10.00;99.90
28608;DHT22;15802;45.654;13.804;2022-11-06T04:44:58;10.00;99.90
28608;DHT22;15802;45.654;13.804;2022-11-06T04:47:25;10.00;99.90
28608;DHT22;15802;45.654;13.804;2022-11-06T04:49:51;10.00;99.90
28608;DHT22;15802;45.654;13.804;2022-11-06T04:52:20;9.90;99.90
28608;DHT22;15802;45.654;13.804;2022-11-06T04:54:48;9.80;99.90
28608;DHT22;15802;45.654;13.804;2022-11-06T04:57:14;9.80;99.90
28608;DHT22;15802;45.654;13.804;2022-11-06T04:59:42;9.70;99.90
28608;DHT22;15802;45.654;13.804;2022-11-06T05:02:08;9.60;99.90
28608;DHT22;15802;45.654;13.804;2022-11-06T05:04:34;9.50;99.90
28608;DHT22;15802;45.654;13.804;2022-11-06T05:06:59;9.50;99.90
28608;DHT22;15802;45.654;13.804;2022-11-06T05:09:25;9.40;99.90
28608;DHT22;15802;45.654;13.804;2022-11-06T05:11:51;9.40;99.90
28608;DHT22;15802;45.654;13.804;2022-11-06T05:14:17;9.50;99.90
28608;DHT22;15802;45.654;13.804;2022-11-06T05:16:42;9.40;99.90
28608;DHT22;15802;45.654;13.804;2022-11-06T05:19:08;9.40;99.90
28608;DHT22;15802;45.654;13.804;2022-11-06T05:21:34;9.40;99.90
28608;DHT22;15802;45.654;13.804;2022-11-06T05:24:18;9.40;99.90
28608;DHT22;15802;45.654;13.804;2022-11-06T05:26:44;9.40;99.90
28608;DHT22;15802;45.654;13.804;2022-11-06T05:29:10;9.30;99.90
28608;DHT22;15802;45.654;13.804;2022-11-06T05:31:36;9.30;99.90
28608;DHT22;15802;45.654;13.804;2022-11-06T05:34:01;9.40;99.90
28608;DHT22;15802;45.654;13.804;2022-11-06T05:36:27;9.40;99.90
28608;DHT22;15802;45.654;13.804;2022-11-06T05:38:52;9.50;99.90
28608;DHT22;15802;45.654;13.804;2022-11-06T05:41:18;9.40;99.90
28608;DHT22;15802;45.654;13.804;2022-11-06T05:43:44;9.40;99.90
28608;DHT22;15802;45.654;13.804;2022-11-06T05:46:10;9.60;99.90
28608;DHT22;15802;45.654;13.804;2022-11-06T05:48:35;9.90;99.90
28608;DHT22;15802;45.654;13.804;2022-11-06T05:51:02;10.10;99.90
28608;DHT22;15802;45.654;13.804;2022-11-06T05:53:29;10.00;99.90
28608;DHT22;15802;45.654;13.804;2022-11-06T05:55:54;10.00;99.90
28608;DHT22;15802;45.654;13.804;2022-11-06T05:58:20;10.10;99.90
28608;DHT22;15802;45.654;13.804;2022-11-06T06:00:46;10.30;99.90
28608;DHT22;15802;45.654;13.804;2022-11-06T06:03:11;10.40;99.90
28608;DHT22;15802;45.654;13.804;2022-11-06T06:05:37;10.80;99.90
28608;DHT22;15802;45.654;13.804;2022-11-06T06:08:06;11.20;99.90
28608;DHT22;15802;45.654;13.804;2022-11-06T06:10:32;11.30;99.90
28608;DHT22;15802;45.654;13.804;2022-11-06T06:12:57;11.50;99.90
28608;DHT22;15802;45.654;13.804;2022-11-06T06:15:23;11.60;99.90
28608;DHT22;15802;45.654;13.804;2022-11-06T06:17:49;11.70;99.90
28608;DHT22;15802;45.654;13.804;2022-11-06T06:20:15;11.70;99.90
28608;DHT22;15802;45.654;13.804;2022-11-06T06:22:41;11.70;99.90
28608;DHT22;15802;45.654;13.804;2022-11-06T06:25:06;11.80;99.90
28608;DHT22;15802;45.654;13.804;2022-11-06T06:27:32;11.80;99.90
28608;DHT22;15802;45.654;13.804;2022-11-06T06:29:58;11.80;99.90
28608;DHT22;15802;45.654;13.804;2022-11-06T06:32:24;11.80;99.90
28608;DHT22;15802;45.654;13.804;2022-11-06T06:34:49;11.80;99.90
28608;DHT22;15802;45.654;13.804;2022-11-06T06:37:18;11.70;99.90
28608;DHT22;15802;45.654;13.804;2022-11-06T06:39:46;11.60;99.90
28608;DHT22;15802;45.654;13.804;2022-11-06T06:42:12;11.80;99.90
28608;DHT22;15802;45.654;13.804;2022-11-06T06:44:38;11.80;99.90
28608;DHT22;15802;45.654;13.804;2022-11-06T06:47:04;11.90;99.90
28608;DHT22;15802;45.654;13.804;2022-11-06T06:49:32;12.00;99.90
28608;DHT22;15802;45.654;13.804;2022-11-06T06:52:01;12.20;99.90
28608;DHT22;15802;45.654;13.804;2022-11-06T06:54:27;12.20;99.90
28608;DHT22;15802;45.654;13.804;2022-11-06T06:56:52;12.20;99.90
28608;DHT22;15802;45.654;13.804;2022-11-06T06:59:18;12.30;99.90
28608;DHT22;15802;45.654;13.804;2022-11-06T07:01:44;12.30;99.90
28608;DHT22;15802;45.654;13.804;2022-11-06T07:04:09;12.30;99.90
28608;DHT22;15802;45.654;13.804;2022-11-06T07:06:35;12.30;99.90
28608;DHT22;15802;45.654;13.804;2022-11-06T07:09:01;12.40;99.90
28608;DHT22;15802;45.654;13.804;2022-11-06T07:11:27;12.50;99.90
28608;DHT22;15802;45.654;13.804;2022-11-06T07:13:53;12.40;99.90
28608;DHT22;15802;45.654;13.804;2022-11-06T07:16:18;12.40;99.90
28608;DHT22;15802;45.654;13.804;2022-11-06T07:18:46;12.40;99.90
28608;DHT22;15802;45.654;13.804;2022-11-06T07:21:12;12.40;99.90
28608;DHT22;15802;45.654;13.804;2022-11-06T07:23:38;12.50;99.90
28608;DHT22;15802;45.654;13.804;2022-11-06T07:26:06;12.50;99.90
28608;DHT22;15802;45.654;13.804;2022-11-06T07:28:32;12.60;99.90
28608;DHT22;15802;45.654;13.804;2022-11-06T07:30:59;12.60;99.90
28608;DHT22;15802;45.654;13.804;2022-11-06T07:33:25;12.50;99.90
28608;DHT22;15802;45.654;13.804;2022-11-06T07:35:50;12.60;99.90
28608;DHT22;15802;45.654;13.804;2022-11-06T07:38:16;12.60;99.90
28608;DHT22;15802;45.654;13.804;2022-11-06T07:40:45;12.60;99.90
28608;DHT22;15802;45.654;13.804;2022-11-06T07:43:11;12.70;99.90
28608;DHT22;15802;45.654;13.804;2022-11-06T07:45:38;12.70;99.90
28608;DHT22;15802;45.654;13.804;2022-11-06T07:48:04;12.80;99.90
28608;DHT22;15802;45.654;13.804;2022-11-06T07:50:30;12.80;99.90
28608;DHT22;15802;45.654;13.804;2022-11-06T07:52:57;12.80;99.90
28608;DHT22;15802;45.654;13.804;2022-11-06T07:55:25;12.80;99.90
28608;DHT22;15802;45.654;13.804;2022-11-06T07:57:51;12.80;99.90
28608;DHT22;15802;45.654;13.804;2022-11-06T08:00:17;12.80;99.90
28608;DHT22;15802;45.654;13.804;2022-11-06T08:02:43;12.80;99.90
28608;DHT22;15802;45.654;13.804;2022-11-06T08:05:08;12.90;99.90
28608;DHT22;15802;45.654;13.804;2022-11-06T08:07:34;12.90;99.90
28608;DHT22;15802;45.654;13.804;2022-11-06T08:10:00;12.90;99.90
28608;DHT22;15802;45.654;13.804;2022-11-06T08:12:26;12.90;99.90
28608;DHT22;15802;45.654;13.804;2022-11-06T08:14:52;13.00;99.90
28608;DHT22;15802;45.654;13.804;2022-11-06T08:17:17;13.00;99.90
28608;DHT22;15802;45.654;13.804;2022-11-06T08:19:43;13.10;99.90
28608;DHT22;15802;45.654;13.804;2022-11-06T08:22:09;13.10;99.90
28608;DHT22;15802;45.654;13.804;2022-11-06T08:24:35;13.10;99.90
28608;DHT22;15802;45.654;13.804;2022-11-06T08:27:00;13.20;99.90
28608;DHT22;15802;45.654;13.804;2022-11-06T08:29:27;13.20;99.90
28608;DHT22;15802;45.654;13.804;2022-11-06T08:31:53;13.30;99.90
28608;DHT22;15802;45.654;13.804;2022-11-06T08:34:19;13.30;99.90
28608;DHT22;15802;45.654;13.804;2022-11-06T08:36:45;13.30;99.90
28608;DHT22;15802;45.654;13.804;2022-11-06T08:39:13;13.40;99.90
28608;DHT22;15802;45.654;13.804;2022-11-06T08:41:39;13.50;99.90
28608;DHT22;15802;45.654;13.804;2022-11-06T08:44:05;13.50;99.90
28608;DHT22;15802;45.654;13.804;2022-11-06T08:49:01;13.70;99.90
28608;DHT22;15802;45.654;13.804;2022-11-06T08:51:27;13.70;99.90
28608;DHT22;15802;45.654;13.804;2022-11-06T08:53:53;13.70;99.90
28608;DHT22;15802;45.654;13.804;2022-11-06T08:56:19;13.70;99.90
28608;DHT22;15802;45.654;13.804;2022-11-06T08:58:44;13.70;99.90
28608;DHT22;15802;45.654;13.804;2022-11-06T09:01:10;13.80;99.90
28608;DHT22;15802;45.654;13.804;2022-11-06T09:03:36;13.90;99.90
28608;DHT22;15802;45.654;13.804;2022-11-06T09:06:19;13.90;99.90
28608;DHT22;15802;45.654;13.804;2022-11-06T09:08:48;13.90;99.90
28608;DHT22;15802;45.654;13.804;2022-11-06T09:11:14;14.00;99.90
28608;DHT22;15802;45.654;13.804;2022-11-06T09:13:39;14.00;99.90
28608;DHT22;15802;45.654;13.804;2022-11-06T09:16:05;14.10;99.90
28608;DHT22;15802;45.654;13.804;2022-11-06T09:18:31;14.20;99.90
28608;DHT22;15802;45.654;13.804;2022-11-06T09:20:57;14.20;99.90
28608;DHT22;15802;45.654;13.804;2022-11-06T09:23:25;14.30;99.90
28608;DHT22;15802;45.654;13.804;2022-11-06T09:25:56;14.30;99.90
28608;DHT22;15802;45.654;13.804;2022-11-06T09:28:22;14.40;99.90
28608;DHT22;15802;45.654;13.804;2022-11-06T09:30:48;14.40;99.90
28608;DHT22;15802;45.654;13.804;2022-11-06T09:33:14;14.40;99.90
28608;DHT22;15802;45.654;13.804;2022-11-06T09:35:40;14.40;99.90
28608;DHT22;15802;45.654;13.804;2022-11-06T09:38:07;14.40;99.90
28608;DHT22;15802;45.654;13.804;2022-11-06T09:40:35;14.50;99.90
28608;DHT22;15802;45.654;13.804;2022-11-06T09:43:06;14.50;99.90
28608;DHT22;15802;45.654;13.804;2022-11-06T09:45:38;14.50;99.90
28608;DHT22;15802;45.654;13.804;2022-11-06T09:48:10;14.60;99.90
28608;DHT22;15802;45.654;13.804;2022-11-06T09:50:39;14.60;99.90
28608;DHT22;15802;45.654;13.804;2022-11-06T09:53:10;14.70;99.90
28608;DHT22;15802;45.654;13.804;2022-11-06T09:55:39;14.80;99.90
28608;DHT22;15802;45.654;13.804;2022-11-06T10:00:50;14.90;99.90
28608;DHT22;15802;45.654;13.804;2022-11-06T10:03:25;15.00;99.90
28608;DHT22;15802;45.654;13.804;2022-11-06T10:05:53;15.00;99.90
28608;DHT22;15802;45.654;13.804;2022-11-06T10:08:20;15.10;99.90
28608;DHT22;15802;45.654;13.804;2022-11-06T10:10:58;15.20;99.90
28608;DHT22;15802;45.654;13.804;2022-11-06T10:13:31;15.20;99.90
28608;DHT22;15802;45.654;13.804;2022-11-06T10:16:10;15.20;99.90
28608;DHT22;15802;45.654;13.804;2022-11-06T10:18:55;15.30;99.90
28608;DHT22;15802;45.654;13.804;2022-11-06T10:21:24;15.40;99.90
28608;DHT22;15802;45.654;13.804;2022-11-06T10:23:57;15.40;99.90
28608;DHT22;15802;45.654;13.804;2022-11-06T10:26:36;15.40;99.90
28608;DHT22;15802;45.654;13.804;2022-11-06T10:29:11;15.50;99.90
28608;DHT22;15802;45.654;13.804;2022-11-06T10:34:28;15.50;99.90
28608;DHT22;15802;45.654;13.804;2022-11-06T10:37:00;15.50;99.90
28608;DHT22;15802;45.654;13.804;2022-11-06T10:39:31;15.50;99.90
28608;DHT22;15802;45.654;13.804;2022-11-06T10:42:02;15.50;99.90
28608;DHT22;15802;45.654;13.804;2022-11-06T10:44:32;15.60;99.90
28608;DHT22;15802;45.654;13.804;2022-11-06T10:47:17;15.60;99.90
28608;DHT22;15802;45.654;13.804;2022-11-06T10:49:44;15.60;99.90
28608;DHT22;15802;45.654;13.804;2022-11-06T10:52:23;15.40;99.90
28608;DHT22;15802;45.654;13.804;2022-11-06T10:58:01;15.60;99.90
28608;DHT22;15802;45.654;13.804;2022-11-06T11:00:30;15.70;99.90
28608;DHT22;15802;45.654;13.804;2022-11-06T11:05:33;15.70;99.90
28608;DHT22;15802;45.654;13.804;2022-11-06T11:08:40;15.70;99.90
28608;DHT22;15802;45.654;13.804;2022-11-06T11:11:00;15.80;99.90
28608;DHT22;15802;45.654;13.804;2022-11-06T11:13:32;15.90;99.90
28608;DHT22;15802;45.654;13.804;2022-11-06T11:15:57;16.00;99.90
28608;DHT22;15802;45.654;13.804;2022-11-06T11:18:31;16.00;99.90
28608;DHT22;15802;45.654;13.804;2022-11-06T11:21:05;15.80;99.90
28608;DHT22;15802;45.654;13.804;2022-11-06T11:23:35;15.80;99.90
28608;DHT22;15802;45.654;13.804;2022-11-06T11:29:15;15.90;99.90
28608;DHT22;15802;45.654;13.804;2022-11-06T11:31:54;15.90;99.90
28608;DHT22;15802;45.654;13.804;2022-11-06T11:34:27;15.80;99.90
28608;DHT22;15802;45.654;13.804;2022-11-06T11:36:57;15.90;99.90
28608;DHT22;15802;45.654;13.804;2022-11-06T11:39:30;15.90;99.90
28608;DHT22;15802;45.654;13.804;2022-11-06T11:45:13;15.80;99.90
28608;DHT22;15802;45.654;13.804;2022-11-06T11:47:41;15.80;99.90
28608;DHT22;15802;45.654;13.804;2022-11-06T11:50:25;15.80;99.90
28608;DHT22;15802;45.654;13.804;2022-11-06T11:53:09;15.90;99.90
28608;DHT22;15802;45.654;13.804;2022-11-06T11:55:37;16.00;99.90
28608;DHT22;15802;45.654;13.804;2022-11-06T11:58:05;15.90;99.90
28608;DHT22;15802;45.654;13.804;2022-11-06T12:00:38;15.80;99.90
28608;DHT22;15802;45.654;13.804;2022-11-06T12:03:16;15.80;99.90
28608;DHT22;15802;45.654;13.804;2022-11-06T12:06:03;15.80;99.90
28608;DHT22;15802;45.654;13.804;2022-11-06T12:08:30;15.90;99.90
28608;DHT22;15802;45.654;13.804;2022-11-06T12:11:03;15.90;99.90
28608;DHT22;15802;45.654;13.804;2022-11-06T12:13:33;15.90;99.90
28608;DHT22;15802;45.654;13.804;2022-11-06T12:16:12;15.90;99.90
28608;DHT22;15802;45.654;13.804;2022-11-06T12:18:43;16.00;99.90
28608;DHT22;15802;45.654;13.804;2022-11-06T12:21:19;15.80;99.90
28608;DHT22;15802;45.654;13.804;2022-11-06T12:23:59;15.80;99.90
28608;DHT22;15802;45.654;13.804;2022-11-06T12:26:47;15.90;99.90
28608;DHT22;15802;45.654;13.804;2022-11-06T12:29:19;15.90;99.90
28608;DHT22;15802;45.654;13.804;2022-11-06T12:32:15;15.90;99.90
28608;DHT22;15802;45.654;13.804;2022-11-06T12:34:48;15.80;99.90
28608;DHT22;15802;45.654;13.804;2022-11-06T12:37:34;15.70;99.90
28608;DHT22;15802;45.654;13.804;2022-11-06T12:40:11;15.80;99.90
28608;DHT22;15802;45.654;13.804;2022-11-06T12:42:59;15.70;99.90
28608;DHT22;15802;45.654;13.804;2022-11-06T12:45:34;15.80;99.90
28608;DHT22;15802;45.654;13.804;2022-11-06T12:50:53;15.90;99.90
28608;DHT22;15802;45.654;13.804;2022-11-06T12:53:30;15.80;99.90
28608;DHT22;15802;45.654;13.804;2022-11-06T12:56:02;15.90;99.90
28608;DHT22;15802;45.654;13.804;2022-11-06T12:58:46;15.90;99.90
28608;DHT22;15802;45.654;13.804;2022-11-06T13:01:18;15.90;99.90
28608;DHT22;15802;45.654;13.804;2022-11-06T13:06:14;15.80;99.90
28608;DHT22;15802;45.654;13.804;2022-11-06T13:08:53;15.90;99.90
28608;DHT22;15802;45.654;13.804;2022-11-06T13:11:40;15.80;99.90
28608;DHT22;15802;45.654;13.804;2022-11-06T13:14:15;15.80;99.90
28608;DHT22;15802;45.654;13.804;2022-11-06T13:19:32;15.90;99.90
28608;DHT22;15802;45.654;13.804;2022-11-06T13:22:15;15.80;99.90
28608;DHT22;15802;45.654;13.804;2022-11-06T13:24:48;15.80;99.90
28608;DHT22;15802;45.654;13.804;2022-11-06T13:27:21;15.80;99.90
28608;DHT22;15802;45.654;13.804;2022-11-06T13:29:48;15.80;99.90
28608;DHT22;15802;45.654;13.804;2022-11-06T13:32:15;15.90;99.90
28608;DHT22;15802;45.654;13.804;2022-11-06T13:34:42;15.80;99.90
28608;DHT22;15802;45.654;13.804;2022-11-06T13:37:12;15.80;99.90
28608;DHT22;15802;45.654;13.804;2022-11-06T13:39:40;15.70;99.90
28608;DHT22;15802;45.654;13.804;2022-11-06T13:42:12;15.80;99.90
28608;DHT22;15802;45.654;13.804;2022-11-06T13:44:39;15.80;99.90
28608;DHT22;15802;45.654;13.804;2022-11-06T13:47:13;15.80;99.90
28608;DHT22;15802;45.654;13.804;2022-11-06T13:49:55;15.70;99.90
28608;DHT22;15802;45.654;13.804;2022-11-06T13:52:28;15.70;99.90
28608;DHT22;15802;45.654;13.804;2022-11-06T13:58:02;15.70;99.90
28608;DHT22;15802;45.654;13.804;2022-11-06T14:00:38;15.70;99.90
28608;DHT22;15802;45.654;13.804;2022-11-06T14:06:02;15.70;99.90
28608;DHT22;15802;45.654;13.804;2022-11-06T14:08:34;15.60;99.90
28608;DHT22;15802;45.654;13.804;2022-11-06T14:11:04;15.60;99.90
28608;DHT22;15802;45.654;13.804;2022-11-06T14:13:32;15.60;99.90
28608;DHT22;15802;45.654;13.804;2022-11-06T14:16:00;15.50;99.90
28608;DHT22;15802;45.654;13.804;2022-11-06T14:18:26;15.60;99.90
28608;DHT22;15802;45.654;13.804;2022-11-06T14:21:24;15.50;99.90
28608;DHT22;15802;45.654;13.804;2022-11-06T14:23:45;15.50;99.90
28608;DHT22;15802;45.654;13.804;2022-11-06T14:26:12;15.60;99.90
28608;DHT22;15802;45.654;13.804;2022-11-06T14:28:38;15.50;99.90
28608;DHT22;15802;45.654;13.804;2022-11-06T14:31:04;15.40;99.90
28608;DHT22;15802;45.654;13.804;2022-11-06T14:38:54;15.30;99.90
28608;DHT22;15802;45.654;13.804;2022-11-06T14:41:49;15.20;99.90
28608;DHT22;15802;45.654;13.804;2022-11-06T14:44:24;15.20;99.90
28608;DHT22;15802;45.654;13.804;2022-11-06T14:46:53;15.30;99.90
28608;DHT22;15802;45.654;13.804;2022-11-06T14:49:27;15.30;99.90
28608;DHT22;15802;45.654;13.804;2022-11-06T14:51:57;15.20;99.90
28608;DHT22;15802;45.654;13.804;2022-11-06T14:54:23;15.20;99.90
28608;DHT22;15802;45.654;13.804;2022-11-06T14:56:52;15.20;99.90
28608;DHT22;15802;45.654;13.804;2022-11-06T14:59:20;15.10;99.90
28608;DHT22;15802;45.654;13.804;2022-11-06T15:01:54;15.10;99.90
28608;DHT22;15802;45.654;13.804;2022-11-06T15:04:20;15.00;99.90
28608;DHT22;15802;45.654;13.804;2022-11-06T15:06:47;15.00;99.90
28608;DHT22;15802;45.654;13.804;2022-11-06T15:12:03;14.90;99.90
28608;DHT22;15802;45.654;13.804;2022-11-06T15:17:15;14.80;99.90
28608;DHT22;15802;45.654;13.804;2022-11-06T15:19:42;14.70;99.90
28608;DHT22;15802;45.654;13.804;2022-11-06T15:22:19;14.70;99.90
28608;DHT22;15802;45.654;13.804;2022-11-06T15:24:50;14.60;99.90
28608;DHT22;15802;45.654;13.804;2022-11-06T15:27:18;14.60;99.90
28608;DHT22;15802;45.654;13.804;2022-11-06T15:29:45;14.50;99.90
28608;DHT22;15802;45.654;13.804;2022-11-06T15:32:12;14.60;99.90
28608;DHT22;15802;45.654;13.804;2022-11-06T15:37:34;14.50;99.90
28608;DHT22;15802;45.654;13.804;2022-11-06T15:40:02;14.50;99.90
28608;DHT22;15802;45.654;13.804;2022-11-06T15:42:29;14.40;99.90
28608;DHT22;15802;45.654;13.804;2022-11-06T15:45:23;14.40;99.90
28608;DHT22;15802;45.654;13.804;2022-11-06T15:47:57;14.30;99.90
28608;DHT22;15802;45.654;13.804;2022-11-06T15:50:27;14.30;99.90
28608;DHT22;15802;45.654;13.804;2022-11-06T15:52:53;14.30;99.90
28608;DHT22;15802;45.654;13.804;2022-11-06T15:55:24;14.20;99.90
28608;DHT22;15802;45.654;13.804;2022-11-06T15:57:50;14.20;99.90
28608;DHT22;15802;45.654;13.804;2022-11-06T16:00:19;14.20;99.90
28608;DHT22;15802;45.654;13.804;2022-11-06T16:02:46;14.10;99.90
28608;DHT22;15802;45.654;13.804;2022-11-06T16:05:13;14.10;99.90
28608;DHT22;15802;45.654;13.804;2022-11-06T16:07:39;14.10;99.90
28608;DHT22;15802;45.654;13.804;2022-11-06T16:10:05;14.10;99.90
28608;DHT22;15802;45.654;13.804;2022-11-06T16:12:31;14.00;99.90
28608;DHT22;15802;45.654;13.804;2022-11-06T16:14:57;13.90;99.90
28608;DHT22;15802;45.654;13.804;2022-11-06T16:17:24;13.90;99.90
28608;DHT22;15802;45.654;13.804;2022-11-06T16:19:51;13.80;99.90
28608;DHT22;15802;45.654;13.804;2022-11-06T16:22:19;13.70;99.90
28608;DHT22;15802;45.654;13.804;2022-11-06T16:24:48;13.70;99.90
28608;DHT22;15802;45.654;13.804;2022-11-06T16:27:15;13.70;99.90